sensor_id;sensor_type;location;lat;lon;timestamp;P1;durP1;ratioP1;P2;durP2;ratioP2
21546;SDS011;41275;51.912;4.388;2023-02-10T00:03:26;24.90;;;9.25;;
21546;SDS011;41275;51.912;4.388;2023-02-10T00:08:48;19.23;;;9.13;;
21546;SDS011;41275;51.912;4.388;2023-02-10T00:14:14;19.47;;;10.20;;
21546;SDS011;41275;51.912;4.388;2023-02-10T00:19:37;21.80;;;10.38;;
21546;SDS011;41275;51.912;4.388;2023-02-10T00:24:58;25.70;;;11.88;;
21546;SDS011;41275;51.912;4.388;2023-02-10T00:30:19;25.77;;;11.70;;
21546;SDS011;41275;51.912;4.388;2023-02-10T00:35:41;27.17;;;12.35;;
21546;SDS011;41275;51.912;4.388;2023-02-10T00:41:06;22.63;;;11.00;;
21546;SDS011;41275;51.912;4.388;2023-02-10T00:46:29;26.63;;;12.70;;
21546;SDS011;41275;51.912;4.388;2023-02-10T00:51:50;24.33;;;12.17;;
21546;SDS011;41275;51.912;4.388;2023-02-10T00:57:11;22.98;;;10.52;;
21546;SDS011;41275;51.912;4.388;2023-02-10T01:02:32;22.23;;;10.07;;
21546;SDS011;41275;51.912;4.388;2023-02-10T01:07:54;19.67;;;9.60;;
21546;SDS011;41275;51.912;4.388;2023-02-10T01:13:15;19.38;;;9.05;;
21546;SDS011;41275;51.912;4.388;2023-02-10T01:18:36;19.35;;;8.52;;
21546;SDS011;41275;51.912;4.388;2023-02-10T01:23:58;19.00;;;8.23;;
21546;SDS011;41275;51.912;4.388;2023-02-10T01:29:19;19.50;;;8.43;;
21546;SDS011;41275;51.912;4.388;2023-02-10T01:34:41;18.35;;;7.15;;
21546;SDS011;41275;51.912;4.388;2023-02-10T01:40:02;17.55;;;7.13;;
21546;SDS011;41275;51.912;4.388;2023-02-10T01:45:29;16.20;;;6.75;;
21546;SDS011;41275;51.912;4.388;2023-02-10T01:50:53;16.80;;;6.13;;
21546;SDS011;41275;51.912;4.388;2023-02-10T01:56:22;14.57;;;5.87;;
21546;SDS011;41275;51.912;4.388;2023-02-10T02:01:43;12.93;;;5.30;;
21546;SDS011;41275;51.912;4.388;2023-02-10T02:07:04;12.98;;;6.00;;
21546;SDS011;41275;51.912;4.388;2023-02-10T02:35:19;20.20;;;9.40;;
21546;SDS011;41275;51.912;4.388;2023-02-10T02:40:47;20.70;;;8.25;;
21546;SDS011;41275;51.912;4.388;2023-02-10T02:46:10;22.37;;;9.47;;
21546;SDS011;41275;51.912;4.388;2023-02-10T02:51:46;23.63;;;10.00;;
21546;SDS011;41275;51.912;4.388;2023-02-10T03:02:48;20.30;;;10.32;;
21546;SDS011;41275;51.912;4.388;2023-02-10T03:08:10;20.58;;;10.20;;
21546;SDS011;41275;51.912;4.388;2023-02-10T03:13:31;23.90;;;12.73;;
21546;SDS011;41275;51.912;4.388;2023-02-10T03:18:52;27.88;;;12.85;;
21546;SDS011;41275;51.912;4.388;2023-02-10T03:24:14;27.50;;;13.20;;
21546;SDS011;41275;51.912;4.388;2023-02-10T03:29:35;25.65;;;12.82;;
21546;SDS011;41275;51.912;4.388;2023-02-10T03:34:56;32.38;;;14.55;;
21546;SDS011;41275;51.912;4.388;2023-02-10T03:40:17;42.43;;;18.17;;
21546;SDS011;41275;51.912;4.388;2023-02-10T03:45:39;37.33;;;17.70;;
21546;SDS011;41275;51.912;4.388;2023-02-10T03:51:01;39.10;;;19.30;;
21546;SDS011;41275;51.912;4.388;2023-02-10T03:56:23;38.67;;;18.80;;
21546;SDS011;41275;51.912;4.388;2023-02-10T04:01:45;39.87;;;18.23;;
21546;SDS011;41275;51.912;4.388;2023-02-10T04:07:06;39.53;;;17.67;;
21546;SDS011;41275;51.912;4.388;2023-02-10T04:12:28;36.87;;;17.47;;
21546;SDS011;41275;51.912;4.388;2023-02-10T04:17:49;40.38;;;18.25;;
21546;SDS011;41275;51.912;4.388;2023-02-10T04:23:10;36.70;;;17.73;;
21546;SDS011;41275;51.912;4.388;2023-02-10T04:28:31;43.93;;;17.43;;
21546;SDS011;41275;51.912;4.388;2023-02-10T04:33:53;36.63;;;17.98;;
21546;SDS011;41275;51.912;4.388;2023-02-10T04:39:14;34.30;;;16.93;;
21546;SDS011;41275;51.912;4.388;2023-02-10T04:44:35;35.10;;;16.35;;
21546;SDS011;41275;51.912;4.388;2023-02-10T04:49:57;33.80;;;16.23;;
21546;SDS011;41275;51.912;4.388;2023-02-10T04:55:18;33.25;;;16.40;;
21546;SDS011;41275;51.912;4.388;2023-02-10T05:00:39;31.83;;;14.50;;
21546;SDS011;41275;51.912;4.388;2023-02-10T05:06:05;33.30;;;14.88;;
21546;SDS011;41275;51.912;4.388;2023-02-10T05:11:28;32.13;;;14.48;;
21546;SDS011;41275;51.912;4.388;2023-02-10T05:16:50;29.10;;;14.20;;
21546;SDS011;41275;51.912;4.388;2023-02-10T05:22:11;27.35;;;13.48;;
21546;SDS011;41275;51.912;4.388;2023-02-10T05:27:32;24.10;;;12.47;;
21546;SDS011;41275;51.912;4.388;2023-02-10T05:32:54;26.07;;;12.83;;
21546;SDS011;41275;51.912;4.388;2023-02-10T05:38:15;26.88;;;12.90;;
21546;SDS011;41275;51.912;4.388;2023-02-10T05:43:36;24.25;;;11.63;;
21546;SDS011;41275;51.912;4.388;2023-02-10T05:48:58;21.70;;;11.57;;
21546;SDS011;41275;51.912;4.388;2023-02-10T05:54:19;24.02;;;11.35;;
21546;SDS011;41275;51.912;4.388;2023-02-10T05:59:40;23.65;;;11.15;;
21546;SDS011;41275;51.912;4.388;2023-02-10T06:05:02;20.90;;;10.40;;
21546;SDS011;41275;51.912;4.388;2023-02-10T06:10:24;19.55;;;10.45;;
21546;SDS011;41275;51.912;4.388;2023-02-10T06:15:45;18.38;;;10.25;;
21546;SDS011;41275;51.912;4.388;2023-02-10T06:21:06;19.40;;;10.73;;
21546;SDS011;41275;51.912;4.388;2023-02-10T06:26:27;17.00;;;10.35;;
21546;SDS011;41275;51.912;4.388;2023-02-10T06:31:49;22.23;;;11.10;;
21546;SDS011;41275;51.912;4.388;2023-02-10T06:37:10;16.85;;;10.13;;
21546;SDS011;41275;51.912;4.388;2023-02-10T06:42:31;18.10;;;10.20;;
21546;SDS011;41275;51.912;4.388;2023-02-10T06:47:53;18.17;;;10.57;;
21546;SDS011;41275;51.912;4.388;2023-02-10T06:53:14;21.25;;;12.23;;
21546;SDS011;41275;51.912;4.388;2023-02-10T06:58:35;18.57;;;11.33;;
21546;SDS011;41275;51.912;4.388;2023-02-10T07:03:57;19.48;;;11.65;;
21546;SDS011;41275;51.912;4.388;2023-02-10T07:09:18;19.63;;;11.23;;
21546;SDS011;41275;51.912;4.388;2023-02-10T07:14:39;20.30;;;11.27;;
21546;SDS011;41275;51.912;4.388;2023-02-10T07:20:00;19.42;;;10.90;;
21546;SDS011;41275;51.912;4.388;2023-02-10T07:25:22;17.88;;;11.27;;
21546;SDS011;41275;51.912;4.388;2023-02-10T07:30:43;20.80;;;12.07;;
21546;SDS011;41275;51.912;4.388;2023-02-10T07:36:04;20.80;;;11.25;;
21546;SDS011;41275;51.912;4.388;2023-02-10T07:41:26;20.63;;;10.90;;
21546;SDS011;41275;51.912;4.388;2023-02-10T07:46:47;19.50;;;11.73;;
21546;SDS011;41275;51.912;4.388;2023-02-10T07:52:09;22.95;;;11.50;;
21546;SDS011;41275;51.912;4.388;2023-02-10T07:57:30;22.08;;;11.10;;
21546;SDS011;41275;51.912;4.388;2023-02-10T08:02:51;20.20;;;11.75;;
21546;SDS011;41275;51.912;4.388;2023-02-10T08:08:12;22.37;;;11.90;;
21546;SDS011;41275;51.912;4.388;2023-02-10T08:13:33;23.23;;;12.00;;
21546;SDS011;41275;51.912;4.388;2023-02-10T08:18:55;23.13;;;11.73;;
21546;SDS011;41275;51.912;4.388;2023-02-10T08:24:16;20.42;;;11.55;;
21546;SDS011;41275;51.912;4.388;2023-02-10T08:29:37;20.50;;;11.98;;
21546;SDS011;41275;51.912;4.388;2023-02-10T08:34:58;21.60;;;11.30;;
21546;SDS011;41275;51.912;4.388;2023-02-10T08:40:20;20.15;;;11.77;;
21546;SDS011;41275;51.912;4.388;2023-02-10T08:45:41;23.42;;;12.52;;
21546;SDS011;41275;51.912;4.388;2023-02-10T08:51:10;23.88;;;12.52;;
21546;SDS011;41275;51.912;4.388;2023-02-10T08:56:32;23.38;;;12.82;;
21546;SDS011;41275;51.912;4.388;2023-02-10T09:01:53;23.83;;;13.20;;
21546;SDS011;41275;51.912;4.388;2023-02-10T09:07:15;24.00;;;13.55;;
21546;SDS011;41275;51.912;4.388;2023-02-10T09:12:37;25.20;;;13.33;;
21546;SDS011;41275;51.912;4.388;2023-02-10T09:17:59;23.75;;;12.88;;
21546;SDS011;41275;51.912;4.388;2023-02-10T09:23:20;24.17;;;12.98;;
21546;SDS011;41275;51.912;4.388;2023-02-10T09:28:42;22.90;;;12.32;;
21546;SDS011;41275;51.912;4.388;2023-02-10T09:34:03;24.30;;;12.60;;
21546;SDS011;41275;51.912;4.388;2023-02-10T09:39:24;24.58;;;12.60;;
21546;SDS011;41275;51.912;4.388;2023-02-10T09:44:54;24.17;;;12.60;;
21546;SDS011;41275;51.912;4.388;2023-02-10T09:50:28;21.08;;;12.30;;
21546;SDS011;41275;51.912;4.388;2023-02-10T09:55:58;22.95;;;12.98;;
21546;SDS011;41275;51.912;4.388;2023-02-10T10:07:21;22.83;;;12.48;;
21546;SDS011;41275;51.912;4.388;2023-02-10T10:12:49;20.70;;;12.43;;
21546;SDS011;41275;51.912;4.388;2023-02-10T10:18:21;21.70;;;12.13;;
21546;SDS011;41275;51.912;4.388;2023-02-10T10:35:00;23.80;;;12.98;;
21546;SDS011;41275;51.912;4.388;2023-02-10T10:40:27;25.93;;;13.47;;
21546;SDS011;41275;51.912;4.388;2023-02-10T10:45:53;24.42;;;13.38;;
21546;SDS011;41275;51.912;4.388;2023-02-10T10:51:20;25.70;;;13.88;;
21546;SDS011;41275;51.912;4.388;2023-02-10T11:02:15;25.77;;;14.60;;
21546;SDS011;41275;51.912;4.388;2023-02-10T11:07:39;24.85;;;13.95;;
21546;SDS011;41275;51.912;4.388;2023-02-10T11:13:01;27.20;;;14.00;;
21546;SDS011;41275;51.912;4.388;2023-02-10T11:18:22;25.90;;;13.57;;
21546;SDS011;41275;51.912;4.388;2023-02-10T11:23:48;23.73;;;12.00;;
21546;SDS011;41275;51.912;4.388;2023-02-10T11:29:13;22.80;;;12.38;;
21546;SDS011;41275;51.912;4.388;2023-02-10T11:34:44;25.20;;;12.85;;
21546;SDS011;41275;51.912;4.388;2023-02-10T11:40:17;26.97;;;13.33;;
21546;SDS011;41275;51.912;4.388;2023-02-10T11:45:38;24.40;;;13.68;;
21546;SDS011;41275;51.912;4.388;2023-02-10T11:51:00;28.73;;;13.57;;
21546;SDS011;41275;51.912;4.388;2023-02-10T12:13:45;22.33;;;11.23;;
21546;SDS011;41275;51.912;4.388;2023-02-10T12:19:27;23.13;;;11.40;;
21546;SDS011;41275;51.912;4.388;2023-02-10T12:25:16;23.23;;;12.05;;
21546;SDS011;41275;51.912;4.388;2023-02-10T12:30:57;19.02;;;10.13;;
21546;SDS011;41275;51.912;4.388;2023-02-10T12:36:46;18.23;;;9.60;;
21546;SDS011;41275;51.912;4.388;2023-02-10T12:42:20;22.35;;;10.95;;
21546;SDS011;41275;51.912;4.388;2023-02-10T12:48:06;22.85;;;12.23;;
21546;SDS011;41275;51.912;4.388;2023-02-10T12:53:50;23.43;;;13.70;;
21546;SDS011;41275;51.912;4.388;2023-02-10T13:05:04;25.48;;;12.52;;
21546;SDS011;41275;51.912;4.388;2023-02-10T13:10:40;24.92;;;13.65;;
21546;SDS011;41275;51.912;4.388;2023-02-10T13:16:10;21.13;;;10.93;;
21546;SDS011;41275;51.912;4.388;2023-02-10T13:21:43;21.48;;;11.57;;
21546;SDS011;41275;51.912;4.388;2023-02-10T13:32:57;28.67;;;15.00;;
21546;SDS011;41275;51.912;4.388;2023-02-10T13:38:35;33.40;;;17.70;;
21546;SDS011;41275;51.912;4.388;2023-02-10T13:43:56;29.63;;;16.87;;
21546;SDS011;41275;51.912;4.388;2023-02-10T13:49:18;33.30;;;16.80;;
21546;SDS011;41275;51.912;4.388;2023-02-10T13:54:39;36.40;;;18.20;;
21546;SDS011;41275;51.912;4.388;2023-02-10T14:00:11;32.58;;;18.05;;
21546;SDS011;41275;51.912;4.388;2023-02-10T14:05:54;38.60;;;19.80;;
21546;SDS011;41275;51.912;4.388;2023-02-10T14:16:39;35.17;;;19.13;;
21546;SDS011;41275;51.912;4.388;2023-02-10T14:22:02;37.70;;;18.95;;
21546;SDS011;41275;51.912;4.388;2023-02-10T14:27:25;38.08;;;18.45;;
21546;SDS011;41275;51.912;4.388;2023-02-10T14:32:48;32.05;;;17.48;;
21546;SDS011;41275;51.912;4.388;2023-02-10T14:38:16;31.77;;;17.25;;
21546;SDS011;41275;51.912;4.388;2023-02-10T14:43:41;33.80;;;18.00;;
21546;SDS011;41275;51.912;4.388;2023-02-10T14:49:07;35.55;;;18.48;;
21546;SDS011;41275;51.912;4.388;2023-02-10T14:54:35;36.37;;;17.53;;
21546;SDS011;41275;51.912;4.388;2023-02-10T15:00:00;31.93;;;16.27;;
21546;SDS011;41275;51.912;4.388;2023-02-10T15:05:22;25.77;;;13.93;;
21546;SDS011;41275;51.912;4.388;2023-02-10T15:10:44;27.58;;;14.43;;
21546;SDS011;41275;51.912;4.388;2023-02-10T15:16:10;26.53;;;13.83;;
21546;SDS011;41275;51.912;4.388;2023-02-10T15:21:36;28.52;;;14.57;;
21546;SDS011;41275;51.912;4.388;2023-02-10T15:27:08;26.42;;;12.60;;
21546;SDS011;41275;51.912;4.388;2023-02-10T15:32:35;19.42;;;10.10;;
21546;SDS011;41275;51.912;4.388;2023-02-10T15:37:59;17.10;;;8.63;;
21546;SDS011;41275;51.912;4.388;2023-02-10T15:43:24;16.38;;;7.90;;
21546;SDS011;41275;51.912;4.388;2023-02-10T15:48:48;12.80;;;6.53;;
21546;SDS011;41275;51.912;4.388;2023-02-10T15:54:11;15.15;;;6.90;;
21546;SDS011;41275;51.912;4.388;2023-02-10T15:59:33;15.77;;;7.63;;
21546;SDS011;41275;51.912;4.388;2023-02-10T16:04:54;16.33;;;7.53;;
21546;SDS011;41275;51.912;4.388;2023-02-10T16:10:24;16.17;;;7.47;;
21546;SDS011;41275;51.912;4.388;2023-02-10T16:15:46;13.65;;;7.70;;
21546;SDS011;41275;51.912;4.388;2023-02-10T16:21:13;17.45;;;7.90;;
21546;SDS011;41275;51.912;4.388;2023-02-10T16:26:35;18.20;;;8.38;;
21546;SDS011;41275;51.912;4.388;2023-02-10T16:31:56;19.80;;;8.07;;
21546;SDS011;41275;51.912;4.388;2023-02-10T16:37:18;19.45;;;8.63;;
21546;SDS011;41275;51.912;4.388;2023-02-10T16:42:40;14.70;;;8.02;;
21546;SDS011;41275;51.912;4.388;2023-02-10T16:48:02;18.70;;;8.30;;
21546;SDS011;41275;51.912;4.388;2023-02-10T16:53:23;16.00;;;7.68;;
21546;SDS011;41275;51.912;4.388;2023-02-10T16:58:45;13.50;;;6.90;;
21546;SDS011;41275;51.912;4.388;2023-02-10T17:04:06;15.32;;;6.60;;
21546;SDS011;41275;51.912;4.388;2023-02-10T17:09:27;13.00;;;5.60;;
21546;SDS011;41275;51.912;4.388;2023-02-10T17:14:48;13.43;;;4.67;;
21546;SDS011;41275;51.912;4.388;2023-02-10T17:20:20;12.10;;;4.63;;
21546;SDS011;41275;51.912;4.388;2023-02-10T17:25:54;13.40;;;4.53;;
21546;SDS011;41275;51.912;4.388;2023-02-10T17:31:16;11.75;;;4.22;;
21546;SDS011;41275;51.912;4.388;2023-02-10T17:36:40;12.18;;;3.50;;
21546;SDS011;41275;51.912;4.388;2023-02-10T17:42:02;10.07;;;2.53;;
21546;SDS011;41275;51.912;4.388;2023-02-10T17:47:23;9.60;;;2.47;;
21546;SDS011;41275;51.912;4.388;2023-02-10T17:52:44;9.73;;;2.53;;
21546;SDS011;41275;51.912;4.388;2023-02-10T17:58:06;8.18;;;2.72;;
21546;SDS011;41275;51.912;4.388;2023-02-10T18:03:27;12.88;;;2.60;;
21546;SDS011;41275;51.912;4.388;2023-02-10T18:08:48;9.47;;;2.47;;
21546;SDS011;41275;51.912;4.388;2023-02-10T18:14:09;8.27;;;2.07;;
21546;SDS011;41275;51.912;4.388;2023-02-10T18:19:31;8.27;;;2.17;;
21546;SDS011;41275;51.912;4.388;2023-02-10T18:24:52;8.13;;;2.17;;
21546;SDS011;41275;51.912;4.388;2023-02-10T18:30:14;9.55;;;2.35;;
21546;SDS011;41275;51.912;4.388;2023-02-10T18:35:35;12.98;;;2.88;;
21546;SDS011;41275;51.912;4.388;2023-02-10T18:40:57;12.35;;;3.10;;
21546;SDS011;41275;51.912;4.388;2023-02-10T18:46:19;13.95;;;4.97;;
21546;SDS011;41275;51.912;4.388;2023-02-10T18:51:40;16.70;;;4.80;;
21546;SDS011;41275;51.912;4.388;2023-02-10T18:57:02;12.85;;;5.25;;
21546;SDS011;41275;51.912;4.388;2023-02-10T19:02:23;16.63;;;5.35;;
21546;SDS011;41275;51.912;4.388;2023-02-10T19:07:44;16.38;;;4.00;;
21546;SDS011;41275;51.912;4.388;2023-02-10T19:13:05;12.50;;;3.40;;
21546;SDS011;41275;51.912;4.388;2023-02-10T19:18:27;11.60;;;3.40;;
21546;SDS011;41275;51.912;4.388;2023-02-10T19:23:48;14.20;;;3.63;;
21546;SDS011;41275;51.912;4.388;2023-02-10T19:29:09;16.10;;;2.75;;
21546;SDS011;41275;51.912;4.388;2023-02-10T19:34:30;16.30;;;2.28;;
21546;SDS011;41275;51.912;4.388;2023-02-10T19:39:52;15.27;;;2.70;;
21546;SDS011;41275;51.912;4.388;2023-02-10T19:45:13;12.67;;;3.20;;
21546;SDS011;41275;51.912;4.388;2023-02-10T19:50:34;16.98;;;3.00;;
21546;SDS011;41275;51.912;4.388;2023-02-10T19:55:55;12.10;;;2.70;;
21546;SDS011;41275;51.912;4.388;2023-02-10T20:01:17;15.35;;;2.72;;
21546;SDS011;41275;51.912;4.388;2023-02-10T20:06:41;17.00;;;3.00;;
21546;SDS011;41275;51.912;4.388;2023-02-10T20:12:04;15.73;;;2.47;;
21546;SDS011;41275;51.912;4.388;2023-02-10T20:17:25;12.38;;;2.47;;
21546;SDS011;41275;51.912;4.388;2023-02-10T20:22:47;13.38;;;2.80;;
21546;SDS011;41275;51.912;4.388;2023-02-10T20:28:10;20.55;;;3.20;;
21546;SDS011;41275;51.912;4.388;2023-02-10T20:33:32;18.80;;;2.50;;
21546;SDS011;41275;51.912;4.388;2023-02-10T20:38:53;13.75;;;2.28;;
21546;SDS011;41275;51.912;4.388;2023-02-10T20:44:14;17.00;;;2.95;;
21546;SDS011;41275;51.912;4.388;2023-02-10T20:49:36;13.35;;;3.10;;
21546;SDS011;41275;51.912;4.388;2023-02-10T20:54:57;16.30;;;2.87;;
21546;SDS011;41275;51.912;4.388;2023-02-10T21:00:18;13.23;;;3.50;;
21546;SDS011;41275;51.912;4.388;2023-02-10T21:05:40;16.05;;;4.65;;
21546;SDS011;41275;51.912;4.388;2023-02-10T21:11:02;18.67;;;3.60;;
21546;SDS011;41275;51.912;4.388;2023-02-10T21:16:24;18.30;;;3.17;;
21546;SDS011;41275;51.912;4.388;2023-02-10T21:21:46;12.40;;;2.47;;
21546;SDS011;41275;51.912;4.388;2023-02-10T21:27:08;14.68;;;3.08;;
21546;SDS011;41275;51.912;4.388;2023-02-10T21:32:29;15.20;;;3.05;;
21546;SDS011;41275;51.912;4.388;2023-02-10T21:37:51;19.83;;;3.03;;
21546;SDS011;41275;51.912;4.388;2023-02-10T21:43:12;17.10;;;2.78;;
21546;SDS011;41275;51.912;4.388;2023-02-10T21:48:34;14.00;;;2.83;;
21546;SDS011;41275;51.912;4.388;2023-02-10T21:53:55;13.43;;;3.25;;
21546;SDS011;41275;51.912;4.388;2023-02-10T21:59:16;24.70;;;3.28;;
21546;SDS011;41275;51.912;4.388;2023-02-10T22:04:38;18.15;;;3.72;;
21546;SDS011;41275;51.912;4.388;2023-02-10T22:09:59;22.27;;;3.63;;
21546;SDS011;41275;51.912;4.388;2023-02-10T22:15:20;19.95;;;3.17;;
21546;SDS011;41275;51.912;4.388;2023-02-10T22:20:42;17.98;;;2.88;;
21546;SDS011;41275;51.912;4.388;2023-02-10T22:26:04;17.10;;;3.30;;
21546;SDS011;41275;51.912;4.388;2023-02-10T22:31:27;20.43;;;3.97;;
21546;SDS011;41275;51.912;4.388;2023-02-10T22:36:51;18.73;;;3.40;;
21546;SDS011;41275;51.912;4.388;2023-02-10T22:42:13;14.50;;;3.30;;
21546;SDS011;41275;51.912;4.388;2023-02-10T22:47:35;18.23;;;3.70;;
21546;SDS011;41275;51.912;4.388;2023-02-10T22:52:56;20.70;;;3.47;;
21546;SDS011;41275;51.912;4.388;2023-02-10T22:58:18;22.10;;;3.30;;
21546;SDS011;41275;51.912;4.388;2023-02-10T23:03:40;19.27;;;3.22;;
21546;SDS011;41275;51.912;4.388;2023-02-10T23:09:01;17.33;;;3.13;;
21546;SDS011;41275;51.912;4.388;2023-02-10T23:14:23;15.80;;;2.83;;
21546;SDS011;41275;51.912;4.388;2023-02-10T23:19:44;20.23;;;3.05;;
21546;SDS011;41275;51.912;4.388;2023-02-10T23:25:05;18.02;;;4.07;;
21546;SDS011;41275;51.912;4.388;2023-02-10T23:30:26;17.80;;;2.95;;
21546;SDS011;41275;51.912;4.388;2023-02-10T23:35:48;19.83;;;3.47;;
21546;SDS011;41275;51.912;4.388;2023-02-10T23:41:11;14.80;;;2.93;;
21546;SDS011;41275;51.912;4.388;2023-02-10T23:46:33;22.48;;;3.47;;
21546;SDS011;41275;51.912;4.388;2023-02-10T23:51:55;17.52;;;3.22;;
21546;SDS011;41275;51.912;4.388;2023-02-10T23:57:16;21.65;;;3.42;;
